Time;durP1;ratioP1;P1;durP2;ratioP2;P2;SDS_P1;SDS_P2;PMS_P1;PMS_P2;Temp;Humidity;BMP_temperature;BMP_pressure;BME280_temperature;BME280_humidity;BME280_pressure;Samples;Min_cycle;Max_cycle;Signal;HPM_P1;HPM_P2
2022/05/29 00:01:52;;;;;;;9.10;5.00;;;;;;;;;;5021160;28;20068;-57
2022/05/29 00:04:26;;;;;;;10.68;4.63;;;;;;;;;;5021638;28;20509;-55
2022/05/29 00:06:53;;;;;;;9.02;4.40;;;;;;;;;;5022521;28;20830;-57
2022/05/29 00:09:20;;;;;;;;;;;;;;;;;;5022198;28;20092;-49
2022/05/29 00:11:52;;;;;;;7.10;4.18;;;;;;;;;;5022550;28;20355;-53
2022/05/29 00:14:20;;;;;;;6.90;4.22;;;;;;;;;;5019868;28;20135;-52
2022/05/29 00:16:46;;;;;;;6.80;4.22;;;;;;;;;;5023163;28;20058;-49
2022/05/29 00:19:20;;;;;;;7.07;4.05;;;;;;;;;;5022001;28;20421;-50
2022/05/29 00:21:46;;;;;;;7.40;4.55;;;;;;;;;;5024150;28;20140;-53
2022/05/29 00:24:13;;;;;;;7.03;4.63;;;;;;;;;;5023996;28;20054;-51
2022/05/29 00:26:47;;;;;;;7.78;4.43;;;;;;;;;;5019006;28;20083;-51
2022/05/29 00:29:13;;;;;;;9.18;4.68;;;;;;;;;;5020840;28;20555;-55
2022/05/29 00:31:40;;;;;;;12.18;4.45;;;;;;;;;;5027268;28;20049;-52
2022/05/29 00:34:13;;;;;;;6.30;4.05;;;;;;;;;;5017158;28;20045;-50
2022/05/29 00:36:41;;;;;;;5.65;4.30;;;;;;;;;;5008961;28;20147;-48
2022/05/29 00:39:09;;;;;;;6.05;4.25;;;;;;;;;;5021951;28;20085;-50
2022/05/29 00:41:44;;;;;;;5.80;3.90;;;;;;;;;;5023137;28;20076;-51
2022/05/29 00:44:18;;;;;;;3.60;3.15;;;;;;;;;;5024111;28;20521;-49
2022/05/29 00:46:56;;;;;;;5.00;3.65;;;;;;;;;;5022992;28;20088;-52
2022/05/29 00:49:28;;;;;;;7.30;3.78;;;;;;;;;;5021330;28;20083;-53
2022/05/29 00:52:01;;;;;;;;;;;;;;;;;;5021757;28;20140;-52
2022/05/29 00:54:29;;;;;;;9.18;4.43;;;;;;;;;;5022842;28;19971;-54
2022/05/29 00:56:57;;;;;;;9.23;4.10;;;;;;;;;;5022640;28;20120;-53
2022/05/29 00:59:32;;;;;;;8.68;4.85;;;;;;;;;;5023781;28;20088;-52
2022/05/29 01:02:00;;;;;;;6.03;4.20;;;;;;;;;;5022517;28;20053;-52
2022/05/29 01:04:27;;;;;;;6.10;4.00;;;;;;;;;;5019870;28;20085;-49
2022/05/29 01:07:06;;;;;;;6.30;4.03;;;;;;;;;;5022350;28;20054;-60
2022/05/29 01:09:33;;;;;;;5.60;3.53;;;;;;;;;;5023380;28;20100;-54
2022/05/29 01:12:24;;;;;;;6.43;3.83;;;;;;;;;;5023971;28;20175;-53
2022/05/29 01:14:57;;;;;;;10.30;3.83;;;;;;;;;;5020530;28;20073;-49
2022/05/29 01:17:42;;;;;;;6.00;3.92;;;;;;;;;;5020983;28;20049;-52
2022/05/29 01:20:14;;;;;;;4.57;3.60;;;;;;;;;;5017960;28;20088;-49
2022/05/29 01:22:57;;;;;;;4.97;3.83;;;;;;;;;;5023835;28;20143;-51
2022/05/29 01:25:32;;;;;;;8.63;3.88;;;;;;;;;;5021937;28;20053;-55
2022/05/29 01:28:24;;;;;;;3.97;3.47;;;;;;;;;;5021550;28;20616;-51
2022/05/29 01:31:09;;;;;;;5.70;3.60;;;;;;;;;;5020043;28;20089;-57
2022/05/29 01:34:03;;;;;;;5.28;3.72;;;;;;;;;;5021197;28;20050;-57
2022/05/29 01:36:41;;;;;;;6.45;3.53;;;;;;;;;;5022166;28;20145;-54
2022/05/29 01:39:31;;;;;;;4.78;3.65;;;;;;;;;;5020836;28;20563;-55
2022/05/29 01:41:58;;;;;;;8.13;3.85;;;;;;;;;;5022703;28;20081;-57
2022/05/29 01:44:47;;;;;;;5.65;3.33;;;;;;;;;;5024097;28;20464;-56
2022/05/29 01:47:15;;;;;;;13.30;4.20;;;;;;;;;;5025101;28;20077;-54
2022/05/29 01:49:54;;;;;;;4.75;3.75;;;;;;;;;;5022026;28;20791;-48
2022/05/29 01:52:20;;;;;;;7.07;3.55;;;;;;;;;;5017460;28;20157;-47
2022/05/29 01:54:48;;;;;;;;;;;;;;;;;;5020951;28;20144;-48
2022/05/29 01:57:27;;;;;;;4.70;3.63;;;;;;;;;;5023242;28;20010;-47
2022/05/29 02:00:11;;;;;;;5.00;3.63;;;;;;;;;;5021347;28;20103;-52
2022/05/29 02:02:49;;;;;;;6.22;3.60;;;;;;;;;;5022494;28;20080;-48
2022/05/29 02:05:17;;;;;;;8.40;4.03;;;;;;;;;;5021338;28;20136;-56
2022/05/29 02:07:55;;;;;;;4.18;3.40;;;;;;;;;;5021067;28;20080;-52
2022/05/29 02:10:41;;;;;;;8.05;3.90;;;;;;;;;;5020713;28;20694;-49
2022/05/29 02:13:21;;;;;;;5.80;4.10;;;;;;;;;;5022783;28;20131;-53
2022/05/29 02:15:56;;;;;;;9.15;5.32;;;;;;;;;;5023298;28;20085;-53
2022/05/29 02:18:30;;;;;;;13.27;6.55;;;;;;;;;;5021424;28;20058;-51
2022/05/29 02:20:58;;;;;;;10.85;6.50;;;;;;;;;;5024274;28;20085;-53
2022/05/29 02:23:36;;;;;;;13.40;5.32;;;;;;;;;;5019890;28;20050;-51
2022/05/29 02:26:11;;;;;;;12.52;5.45;;;;;;;;;;5021609;28;20065;-54
2022/05/29 02:28:42;;;;;;;7.43;4.40;;;;;;;;;;5021892;28;20517;-57
2022/05/29 02:31:27;;;;;;;9.90;4.93;;;;;;;;;;5020649;28;20579;-57
2022/05/29 02:34:00;;;;;;;8.00;4.35;;;;;;;;;;5022259;28;20088;-57
2022/05/29 02:36:35;;;;;;;13.02;4.50;;;;;;;;;;5022476;28;20093;-58
2022/05/29 02:39:14;;;;;;;10.48;4.70;;;;;;;;;;5021981;28;20521;-57
2022/05/29 02:41:48;;;;;;;13.52;4.90;;;;;;;;;;5021081;28;20054;-51
2022/05/29 02:44:37;;;;;;;7.05;4.63;;;;;;;;;;5023057;28;20140;-57
2022/05/29 02:47:22;;;;;;;9.18;5.47;;;;;;;;;;5019736;28;20065;-54
2022/05/29 02:50:18;;;;;;;6.63;4.38;;;;;;;;;;5022648;28;20085;-52
2022/05/29 02:52:45;;;;;;;6.55;4.55;;;;;;;;;;5024333;28;20060;-51
2022/05/29 02:55:20;;;;;;;8.05;4.43;;;;;;;;;;5025204;28;20088;-52
2022/05/29 02:57:59;;;;;;;6.40;4.78;;;;;;;;;;5025160;28;20130;-54
2022/05/29 03:00:38;;;;;;;7.68;4.63;;;;;;;;;;5023847;28;20116;-55
2022/05/29 03:03:22;;;;;;;8.85;4.40;;;;;;;;;;5026128;28;20049;-48
2022/05/29 03:06:03;;;;;;;6.35;4.50;;;;;;;;;;5024177;28;20060;-56
2022/05/29 03:08:40;;;;;;;6.18;3.92;;;;;;;;;;5004919;28;20053;-56
2022/05/29 03:11:19;;;;;;;4.90;3.08;;;;;;;;;;5021954;28;20053;-56
2022/05/29 03:13:51;;;;;;;6.40;3.33;;;;;;;;;;5024906;28;20497;-54
2022/05/29 03:16:57;;;;;;;4.47;3.15;;;;;;;;;;5024953;28;20088;-57
2022/05/29 03:19:24;;;;;;;4.78;3.38;;;;;;;;;;4982636;28;20054;-56
2022/05/29 03:22:05;;;;;;;8.05;3.70;;;;;;;;;;5025763;28;20099;-51
2022/05/29 03:24:53;;;;;;;8.35;3.97;;;;;;;;;;5021906;28;20046;-59
2022/05/29 03:27:41;;;;;;;5.32;3.88;;;;;;;;;;5022844;28;20500;-59
2022/05/29 03:30:27;;;;;;;5.70;4.00;;;;;;;;;;5025995;28;20523;-58
2022/05/29 03:33:02;;;;;;;6.20;3.33;;;;;;;;;;5020984;28;20072;-56
2022/05/29 03:35:28;;;;;;;;;;;;;;;;;;5010845;28;20089;-57
2022/05/29 03:37:55;;;;;;;6.95;3.38;;;;;;;;;;5021151;28;19976;-56
2022/05/29 03:40:39;;;;;;;6.95;3.30;;;;;;;;;;5006803;28;20506;-55
2022/05/29 03:43:06;;;;;;;3.90;3.08;;;;;;;;;;5004978;28;20081;-59
2022/05/29 03:45:39;;;;;;;4.57;2.78;;;;;;;;;;5003092;28;20061;-57
2022/05/29 03:48:05;;;;;;;7.82;3.28;;;;;;;;;;5004428;28;20045;-57
2022/05/29 03:50:34;;;;;;;4.88;3.40;;;;;;;;;;5003081;28;20089;-54
2022/05/29 03:53:07;;;;;;;10.05;4.13;;;;;;;;;;5005088;28;20093;-55
2022/05/29 03:55:34;;;;;;;5.20;3.00;;;;;;;;;;5008533;28;20089;-52
2022/05/29 03:58:13;;;;;;;3.53;2.70;;;;;;;;;;5004182;28;20138;-52
2022/05/29 04:00:47;;;;;;;5.25;2.65;;;;;;;;;;4998631;28;20474;-52
2022/05/29 04:03:13;;;;;;;5.40;2.20;;;;;;;;;;5004317;28;20081;-56
2022/05/29 04:05:40;;;;;;;3.50;1.75;;;;;;;;;;5004855;28;20497;-56
2022/05/29 04:13:50;;;;;;;2.28;1.60;;;;;;;;;;5002362;28;20117;-56
2022/05/29 04:16:27;;;;;;;2.88;1.60;;;;;;;;;;5002236;28;20132;-56
2022/05/29 04:19:00;;;;;;;2.25;1.85;;;;;;;;;;5003248;28;20054;-58
2022/05/29 04:21:26;;;;;;;2.63;1.90;;;;;;;;;;5003621;28;20089;-56
2022/05/29 04:23:53;;;;;;;3.60;1.70;;;;;;;;;;5003846;28;20084;-54
2022/05/29 04:26:26;;;;;;;3.53;2.25;;;;;;;;;;5005709;28;20084;-50
2022/05/29 04:28:52;;;;;;;6.22;1.85;;;;;;;;;;5000687;28;20146;-50
2022/05/29 04:31:18;;;;;;;2.53;1.60;;;;;;;;;;5002387;28;20081;-53
2022/05/29 04:33:52;;;;;;;2.08;1.60;;;;;;;;;;5002700;28;20057;-55
2022/05/29 04:36:18;;;;;;;2.78;2.10;;;;;;;;;;5002629;28;20078;-50
2022/05/29 04:38:45;;;;;;;3.17;2.15;;;;;;;;;;5005863;28;20057;-53
2022/05/29 04:41:27;;;;;;;3.08;2.03;;;;;;;;;;5000711;28;20108;-53
2022/05/29 04:43:54;;;;;;;6.43;2.00;;;;;;;;;;5004004;28;21016;-55
2022/05/29 04:46:27;;;;;;;2.83;2.03;;;;;;;;;;5002679;28;20109;-55
2022/05/29 04:48:53;;;;;;;3.58;2.05;;;;;;;;;;5002596;28;20437;-55
2022/05/29 04:51:21;;;;;;;5.18;2.47;;;;;;;;;;5004332;28;20045;-54
2022/05/29 04:53:56;;;;;;;2.58;2.10;;;;;;;;;;5004794;28;20564;-51
2022/05/29 04:56:23;;;;;;;4.22;2.20;;;;;;;;;;5004540;28;20092;-51
2022/05/29 04:58:50;;;;;;;;;;;;;;;;;;5001627;28;20517;-54
2022/05/29 05:01:24;;;;;;;3.25;1.80;;;;;;;;;;5004560;28;19969;-53
2022/05/29 05:03:50;;;;;;;2.13;1.90;;;;;;;;;;4985024;28;20130;-53
2022/05/29 05:06:17;;;;;;;2.88;2.10;;;;;;;;;;5001402;28;20076;-50
2022/05/29 05:08:50;;;;;;;5.28;2.17;;;;;;;;;;5003395;28;20058;-52
2022/05/29 05:11:16;;;;;;;6.18;2.25;;;;;;;;;;5006054;28;20099;-48
2022/05/29 05:13:43;;;;;;;2.80;2.22;;;;;;;;;;5002753;28;20432;-48
2022/05/29 05:16:17;;;;;;;2.45;1.88;;;;;;;;;;5005079;28;20061;-46
2022/05/29 05:18:44;;;;;;;5.05;2.15;;;;;;;;;;5004978;28;20054;-46
2022/05/29 05:21:10;;;;;;;2.85;1.88;;;;;;;;;;4999820;28;20141;-49
2022/05/29 05:23:44;;;;;;;2.30;1.80;;;;;;;;;;5002606;28;20139;-50
2022/05/29 05:26:11;;;;;;;3.25;1.90;;;;;;;;;;5002740;28;20086;-50
2022/05/29 05:28:37;;;;;;;6.00;1.50;;;;;;;;;;5005100;28;20470;-52
2022/05/29 05:31:11;;;;;;;4.82;1.23;;;;;;;;;;5003843;28;20145;-49
2022/05/29 05:33:37;;;;;;;1.75;1.20;;;;;;;;;;5002414;28;20069;-52
2022/05/29 05:36:04;;;;;;;1.50;1.17;;;;;;;;;;5006248;28;20057;-49
2022/05/29 05:38:51;;;;;;;2.17;1.02;;;;;;;;;;5003888;28;20112;-52
2022/05/29 05:41:17;;;;;;;1.70;1.00;;;;;;;;;;5038287;28;20573;-52
2022/05/29 05:43:51;;;;;;;1.15;0.82;;;;;;;;;;5041163;28;20510;-52
2022/05/29 05:46:18;;;;;;;1.95;0.95;;;;;;;;;;5040370;28;20634;-51
2022/05/29 05:48:45;;;;;;;;;;;;;;;;;;5043198;28;20048;-54
2022/05/29 05:51:18;;;;;;;0.85;0.85;;;;;;;;;;5039102;28;19956;-53
2022/05/29 05:53:45;;;;;;;1.08;0.95;;;;;;;;;;5041758;28;20049;-49
2022/05/29 05:56:13;;;;;;;4.13;0.82;;;;;;;;;;5039687;28;20145;-53
2022/05/29 05:58:47;;;;;;;0.90;0.88;;;;;;;;;;5045310;28;20084;-51
2022/05/29 06:01:13;;;;;;;;;;;;;;;;;;5043793;28;20061;-51
2022/05/29 06:03:40;;;;;;;1.00;0.90;;;;;;;;;;5041303;28;19921;-53
2022/05/29 06:06:13;;;;;;;0.95;0.77;;;;;;;;;;5038153;28;20598;-53
2022/05/29 06:08:39;;;;;;;3.90;0.80;;;;;;;;;;5042558;28;20084;-53
2022/05/29 06:11:06;;;;;;;0.70;0.70;;;;;;;;;;5043070;28;20276;-52
2022/05/29 06:13:39;;;;;;;1.10;0.77;;;;;;;;;;5041241;28;20061;-55
2022/05/29 06:16:06;;;;;;;1.27;1.17;;;;;;;;;;5042216;28;20536;-51
2022/05/29 06:18:32;;;;;;;0.80;0.80;;;;;;;;;;5040256;28;20500;-48
2022/05/29 06:21:06;;;;;;;3.05;1.02;;;;;;;;;;5039612;28;20562;-49
2022/05/29 06:23:36;;;;;;;2.83;1.00;;;;;;;;;;5042682;28;20478;-52
2022/05/29 06:26:03;;;;;;;1.55;0.70;;;;;;;;;;5041149;28;20118;-50
2022/05/29 06:28:36;;;;;;;0.68;0.60;;;;;;;;;;5039895;28;20057;-47
2022/05/29 06:31:03;;;;;;;3.50;0.80;;;;;;;;;;5040055;28;20150;-53
2022/05/29 06:33:34;;;;;;;1.90;0.80;;;;;;;;;;5043421;28;20053;-58
2022/05/29 06:36:34;;;;;;;1.38;0.70;;;;;;;;;;5045445;28;20061;-54
2022/05/29 06:39:07;;;;;;;1.85;0.70;;;;;;;;;;5039579;28;20525;-55
2022/05/29 06:41:47;;;;;;;0.80;0.80;;;;;;;;;;5046104;28;20088;-54
2022/05/29 06:44:14;;;;;;;1.55;0.88;;;;;;;;;;5045001;28;20052;-52
2022/05/29 06:46:40;;;;;;;1.40;0.70;;;;;;;;;;5029562;28;20049;-55
2022/05/29 06:49:14;;;;;;;0.68;0.60;;;;;;;;;;5044999;28;20049;-56
2022/05/29 06:51:41;;;;;;;3.00;0.55;;;;;;;;;;5046537;28;20041;-54
2022/05/29 06:54:08;;;;;;;3.03;0.60;;;;;;;;;;5044228;28;20520;-52
2022/05/29 06:56:41;;;;;;;0.70;0.70;;;;;;;;;;5046170;28;20139;-51
2022/05/29 06:59:07;;;;;;;0.80;0.70;;;;;;;;;;5048412;28;20081;-55
2022/05/29 07:07:12;;;;;;;0.52;0.52;;;;;;;;;;5041452;28;20504;-55
2022/05/29 07:09:45;;;;;;;0.57;0.57;;;;;;;;;;5041862;28;20089;-52
2022/05/29 07:12:15;;;;;;;0.60;0.60;;;;;;;;;;5047685;28;20099;-55
2022/05/29 07:14:44;;;;;;;0.60;0.60;;;;;;;;;;5044307;28;20057;-55
2022/05/29 07:17:18;;;;;;;0.40;0.40;;;;;;;;;;5044311;28;20148;-56
2022/05/29 07:19:45;;;;;;;0.65;0.52;;;;;;;;;;5043339;28;20057;-55
2022/05/29 07:22:12;;;;;;;0.50;0.50;;;;;;;;;;5042803;28;20081;-55
2022/05/29 07:24:45;;;;;;;1.40;0.65;;;;;;;;;;5033620;28;20110;-56
2022/05/29 07:27:12;;;;;;;0.40;0.30;;;;;;;;;;5008228;28;20073;-56
2022/05/29 07:29:38;;;;;;;0.52;0.40;;;;;;;;;;5041295;28;20511;-55
2022/05/29 07:32:12;;;;;;;0.85;0.50;;;;;;;;;;5044308;28;20092;-55
2022/05/29 07:34:38;;;;;;;0.43;0.28;;;;;;;;;;5036057;28;20140;-57
2022/05/29 07:37:06;;;;;;;1.13;0.73;;;;;;;;;;5043101;28;20084;-57
2022/05/29 07:39:50;;;;;;;2.42;0.38;;;;;;;;;;5040499;28;20053;-55
2022/05/29 07:45:09;;;;;;;0.30;0.30;;;;;;;;;;5041924;28;20835;-58
2022/05/29 07:47:40;;;;;;;1.17;0.37;;;;;;;;;;5041124;28;20401;-60
2022/05/29 07:50:08;;;;;;;0.60;0.40;;;;;;;;;;5042377;28;20130;-50
2022/05/29 07:53:02;;;;;;;0.40;0.40;;;;;;;;;;5043279;28;20040;-58
2022/05/29 07:55:38;;;;;;;1.70;0.30;;;;;;;;;;5040911;28;20594;-58
2022/05/29 07:58:11;;;;;;;2.67;0.40;;;;;;;;;;5042518;28;20140;-56
2022/05/29 08:00:38;;;;;;;0.43;0.43;;;;;;;;;;5040520;28;20114;-55
2022/05/29 08:03:05;;;;;;;0.53;0.47;;;;;;;;;;5044787;28;20084;-56
2022/05/29 08:05:38;;;;;;;1.75;0.50;;;;;;;;;;5045458;28;20060;-50
2022/05/29 08:08:08;;;;;;;35.45;1.92;;;;;;;;;;5037170;28;20056;-56
2022/05/29 08:10:35;;;;;;;0.55;0.30;;;;;;;;;;5038767;28;20048;-50
2022/05/29 08:13:09;;;;;;;0.90;0.80;;;;;;;;;;5040790;28;20084;-52
2022/05/29 08:15:36;;;;;;;0.40;0.40;;;;;;;;;;5043112;28;20079;-50
2022/05/29 08:18:05;;;;;;;1.35;0.65;;;;;;;;;;5041317;28;20052;-52
2022/05/29 08:20:39;;;;;;;0.55;0.43;;;;;;;;;;5043440;28;20087;-47
2022/05/29 08:23:06;;;;;;;0.63;0.57;;;;;;;;;;5041859;28;20139;-46
2022/05/29 08:31:10;;;;;;;1.42;0.22;;;;;;;;;;5042119;28;20088;-56
2022/05/29 08:34:04;;;;;;;2.33;0.60;;;;;;;;;;5041044;28;20144;-56
2022/05/29 08:36:37;;;;;;;0.30;0.30;;;;;;;;;;5042705;28;20462;-53
2022/05/29 08:39:17;;;;;;;4.20;0.70;;;;;;;;;;5034570;28;20148;-55
2022/05/29 08:41:52;;;;;;;1.15;0.50;;;;;;;;;;5025838;28;20066;-53
2022/05/29 08:44:29;;;;;;;2.47;0.55;;;;;;;;;;5023278;28;20049;-45
2022/05/29 08:47:00;;;;;;;0.85;0.52;;;;;;;;;;5030474;28;20084;-49
2022/05/29 08:49:40;;;;;;;1.38;0.90;;;;;;;;;;5023804;28;20100;-53
2022/05/29 08:52:21;;;;;;;0.57;0.32;;;;;;;;;;5022629;28;20500;-53
2022/05/29 08:55:06;;;;;;;0.30;0.30;;;;;;;;;;5024032;28;20092;-48
2022/05/29 08:57:35;;;;;;;2.08;0.60;;;;;;;;;;5021396;28;20069;-50
2022/05/29 09:00:23;;;;;;;0.57;0.50;;;;;;;;;;5022125;28;20077;-49
2022/05/29 09:02:53;;;;;;;1.23;0.55;;;;;;;;;;5024929;28;20485;-48
2022/05/29 09:05:38;;;;;;;1.85;0.50;;;;;;;;;;5023280;28;20460;-55
2022/05/29 09:08:09;;;;;;;0.88;0.60;;;;;;;;;;5025094;28;20095;-55
2022/05/29 09:11:32;;;;;;;0.75;0.40;;;;;;;;;;5018864;28;20459;-55
2022/05/29 09:14:12;;;;;;;1.02;0.30;;;;;;;;;;5010515;28;20088;-55
2022/05/29 09:16:46;;;;;;;0.63;0.50;;;;;;;;;;5022216;28;20108;-56
2022/05/29 09:19:23;;;;;;;1.90;0.70;;;;;;;;;;5023413;28;20081;-57
2022/05/29 09:22:14;;;;;;;0.30;0.30;;;;;;;;;;5018448;28;20140;-54
2022/05/29 09:24:46;;;;;;;1.13;0.60;;;;;;;;;;5022703;28;20413;-53
2022/05/29 09:27:19;;;;;;;1.10;0.60;;;;;;;;;;5019283;28;20077;-52
2022/05/29 09:29:46;;;;;;;2.05;0.60;;;;;;;;;;5007622;28;20046;-56
2022/05/29 09:32:14;;;;;;;1.30;0.63;;;;;;;;;;5019974;28;20058;-54
2022/05/29 09:34:59;;;;;;;2.50;0.50;;;;;;;;;;5020005;28;20089;-56
2022/05/29 09:37:34;;;;;;;1.08;0.80;;;;;;;;;;5020836;28;20080;-56
2022/05/29 09:40:20;;;;;;;0.65;0.50;;;;;;;;;;5034451;28;20140;-57
2022/05/29 09:42:48;;;;;;;1.10;0.73;;;;;;;;;;5037648;28;20590;-56
2022/05/29 09:45:24;;;;;;;1.30;0.50;;;;;;;;;;5042791;28;20060;-50
2022/05/29 09:50:44;;;;;;;0.90;0.50;;;;;;;;;;5040675;28;20080;-51
2022/05/29 09:53:12;;;;;;;0.60;0.52;;;;;;;;;;5040541;28;20092;-52
2022/05/29 09:55:42;;;;;;;;;;;;;;;;;;5038022;28;20049;-53
2022/05/29 09:58:20;;;;;;;1.15;0.50;;;;;;;;;;5035556;28;20012;-49
2022/05/29 10:00:54;;;;;;;0.77;0.47;;;;;;;;;;5038547;28;20508;-54
2022/05/29 10:03:45;;;;;;;1.17;0.55;;;;;;;;;;5039830;28;20175;-48
2022/05/29 10:06:15;;;;;;;2.75;0.70;;;;;;;;;;5040222;28;20081;-54
2022/05/29 10:08:49;;;;;;;0.63;0.57;;;;;;;;;;5042526;28;20060;-57
2022/05/29 10:11:16;;;;;;;0.55;0.55;;;;;;;;;;5041893;28;20071;-56
2022/05/29 10:13:44;;;;;;;1.67;0.70;;;;;;;;;;5041140;28;20582;-55
2022/05/29 10:16:36;;;;;;;0.70;0.50;;;;;;;;;;5035679;28;20497;-54
2022/05/29 10:19:08;;;;;;;0.82;0.60;;;;;;;;;;5031576;28;20057;-52
2022/05/29 10:21:46;;;;;;;1.00;0.47;;;;;;;;;;5040726;28;20107;-53
2022/05/29 10:24:23;;;;;;;3.58;0.70;;;;;;;;;;5039920;28;20108;-53
2022/05/29 10:26:58;;;;;;;0.88;0.68;;;;;;;;;;5038413;28;20131;-46
2022/05/29 10:29:29;;;;;;;0.95;0.47;;;;;;;;;;5043032;28;20088;-50
2022/05/29 10:32:05;;;;;;;0.73;0.50;;;;;;;;;;5040818;28;20081;-50
2022/05/29 10:34:37;;;;;;;1.85;0.60;;;;;;;;;;5042509;28;20130;-51
2022/05/29 10:37:26;;;;;;;0.50;0.50;;;;;;;;;;5035778;28;20080;-50
2022/05/29 10:40:18;;;;;;;0.40;0.40;;;;;;;;;;5038548;28;20134;-53
2022/05/29 10:42:53;;;;;;;3.75;0.80;;;;;;;;;;5040638;28;20140;-52
2022/05/29 10:45:25;;;;;;;1.05;0.73;;;;;;;;;;5040320;28;20064;-55
2022/05/29 10:48:14;;;;;;;0.52;0.50;;;;;;;;;;5042797;28;20092;-53
2022/05/29 10:51:06;;;;;;;0.57;0.57;;;;;;;;;;5041020;28;20057;-55
2022/05/29 10:53:33;;;;;;;3.42;0.45;;;;;;;;;;5038619;28;20091;-50
2022/05/29 10:56:09;;;;;;;0.60;0.38;;;;;;;;;;5039898;28;20517;-53
2022/05/29 10:58:35;;;;;;;1.08;0.52;;;;;;;;;;5037084;28;20484;-56
2022/05/29 11:04:15;;;;;;;0.60;0.60;;;;;;;;;;5041613;28;20674;-55
2022/05/29 11:06:59;;;;;;;0.38;0.30;;;;;;;;;;5040359;28;20060;-56
2022/05/29 11:09:33;;;;;;;2.58;0.60;;;;;;;;;;5040395;28;20049;-55
2022/05/29 11:12:18;;;;;;;1.00;0.70;;;;;;;;;;5044130;28;20084;-56
2022/05/29 11:15:04;;;;;;;0.50;0.50;;;;;;;;;;5040826;28;20096;-55
2022/05/29 11:17:30;;;;;;;1.80;0.75;;;;;;;;;;5045663;28;20531;-56
2022/05/29 11:20:13;;;;;;;0.80;0.45;;;;;;;;;;5040970;28;20076;-58
2022/05/29 11:22:46;;;;;;;1.02;0.50;;;;;;;;;;5045799;28;20158;-57
2022/05/29 11:25:22;;;;;;;3.33;0.70;;;;;;;;;;5041334;28;20091;-57
2022/05/29 11:27:51;;;;;;;0.65;0.50;;;;;;;;;;5041425;28;20127;-58
2022/05/29 11:30:18;;;;;;;0.40;0.40;;;;;;;;;;5044408;28;20674;-58
2022/05/29 11:32:56;;;;;;;0.90;0.40;;;;;;;;;;5026459;28;20058;-58
2022/05/29 11:35:36;;;;;;;0.60;0.57;;;;;;;;;;5041289;28;20080;-54
2022/05/29 11:38:09;;;;;;;7.78;1.95;;;;;;;;;;5039526;28;20056;-48
2022/05/29 11:40:45;;;;;;;7.18;2.30;;;;;;;;;;5040396;28;20061;-59
2022/05/29 11:43:28;;;;;;;3.38;0.85;;;;;;;;;;5042446;28;20088;-60
2022/05/29 11:51:59;;;;;;;5.38;1.70;;;;;;;;;;5041998;28;20103;-59
2022/05/29 11:54:39;;;;;;;3.15;0.80;;;;;;;;;;5036176;28;20092;-54
2022/05/29 11:57:11;;;;;;;1.35;0.77;;;;;;;;;;5046802;28;20571;-54
2022/05/29 11:59:57;;;;;;;0.73;0.70;;;;;;;;;;5045180;28;20056;-52
2022/05/29 12:02:42;;;;;;;0.90;0.50;;;;;;;;;;5040819;28;20053;-52
2022/05/29 12:05:38;;;;;;;1.95;0.70;;;;;;;;;;5040309;28;20195;-48
2022/05/29 12:08:24;;;;;;;1.55;0.70;;;;;;;;;;5043526;28;20080;-52
2022/05/29 12:11:04;;;;;;;0.90;0.68;;;;;;;;;;5044901;28;20049;-53
2022/05/29 12:13:33;;;;;;;1.58;0.77;;;;;;;;;;5041804;28;20077;-58
2022/05/29 12:16:08;;;;;;;2.53;0.70;;;;;;;;;;5042040;28;20088;-58
2022/05/29 12:18:54;;;;;;;1.63;0.50;;;;;;;;;;5041824;28;20049;-50
2022/05/29 12:21:37;;;;;;;1.27;0.68;;;;;;;;;;5041611;28;20080;-53
2022/05/29 12:24:11;;;;;;;0.63;0.50;;;;;;;;;;5038354;28;20464;-49
2022/05/29 12:26:49;;;;;;;1.33;0.60;;;;;;;;;;5042193;28;20143;-50
2022/05/29 12:29:29;;;;;;;4.53;0.80;;;;;;;;;;5041004;28;20499;-53
2022/05/29 12:32:04;;;;;;;0.93;0.63;;;;;;;;;;5041042;28;20138;-54
2022/05/29 12:34:34;;;;;;;1.67;0.85;;;;;;;;;;5041426;28;20141;-55
2022/05/29 12:37:24;;;;;;;0.40;0.40;;;;;;;;;;5037902;28;20615;-55
2022/05/29 12:40:09;;;;;;;0.55;0.55;;;;;;;;;;5042309;28;20053;-53
2022/05/29 12:43:01;;;;;;;3.92;0.65;;;;;;;;;;5040870;28;20060;-56
2022/05/29 12:45:40;;;;;;;3.20;0.77;;;;;;;;;;5038208;28;20061;-56
2022/05/29 12:48:09;;;;;;;9.05;1.67;;;;;;;;;;5041222;28;20416;-53
2022/05/29 12:50:52;;;;;;;2.83;0.90;;;;;;;;;;5040231;28;20106;-55
2022/05/29 12:53:28;;;;;;;1.52;0.63;;;;;;;;;;5042307;28;20123;-55
2022/05/29 12:56:31;;;;;;;1.13;0.75;;;;;;;;;;5039492;28;20080;-49
2022/05/29 12:59:18;;;;;;;0.65;0.47;;;;;;;;;;5023130;28;20050;-54
2022/05/29 13:01:54;;;;;;;0.73;0.50;;;;;;;;;;5037551;28;20091;-51
2022/05/29 13:04:33;;;;;;;1.58;0.63;;;;;;;;;;5038050;28;20106;-52
2022/05/29 13:07:26;;;;;;;0.63;0.63;;;;;;;;;;5042831;28;20373;-54
2022/05/29 13:10:05;;;;;;;0.75;0.40;;;;;;;;;;5043741;28;20072;-52
2022/05/29 13:12:41;;;;;;;0.82;0.40;;;;;;;;;;5041238;28;20084;-48
2022/05/29 13:15:11;;;;;;;2.92;0.90;;;;;;;;;;5043391;28;20053;-56
2022/05/29 13:17:39;;;;;;;4.25;0.70;;;;;;;;;;5041216;28;20107;-55
2022/05/29 13:20:17;;;;;;;0.30;0.30;;;;;;;;;;5040664;28;20611;-57
2022/05/29 13:22:49;;;;;;;0.75;0.40;;;;;;;;;;5027852;28;20049;-55
2022/05/29 13:25:22;;;;;;;;;;;;;;;;;;5044762;28;20126;-57
2022/05/29 13:27:51;;;;;;;0.70;0.50;;;;;;;;;;5041421;28;20467;-53
2022/05/29 13:30:34;;;;;;;2.38;0.70;;;;;;;;;;5038455;28;20053;-51
2022/05/29 13:33:26;;;;;;;4.00;0.70;;;;;;;;;;5041892;28;20062;-54
2022/05/29 13:35:53;;;;;;;2.08;0.80;;;;;;;;;;5040038;28;20056;-53
2022/05/29 13:38:44;;;;;;;0.47;0.47;;;;;;;;;;5043141;28;20083;-53
2022/05/29 13:41:33;;;;;;;1.58;0.93;;;;;;;;;;5043233;28;20052;-51
2022/05/29 13:44:27;;;;;;;3.13;0.50;;;;;;;;;;5041081;28;20084;-52
2022/05/29 13:47:13;;;;;;;2.35;0.75;;;;;;;;;;5046770;28;20067;-53
2022/05/29 13:50:07;;;;;;;1.08;0.52;;;;;;;;;;5023514;28;20467;-61
2022/05/29 13:52:50;;;;;;;2.00;0.82;;;;;;;;;;5043995;28;20044;-56
2022/05/29 13:55:41;;;;;;;1.33;0.50;;;;;;;;;;5041751;28;20049;-54
2022/05/29 14:04:40;;;;;;;1.50;0.60;;;;;;;;;;5016566;28;20133;-55
2022/05/29 14:07:30;;;;;;;3.90;1.15;;;;;;;;;;5024002;28;20049;-59
2022/05/29 14:10:27;;;;;;;0.90;0.60;;;;;;;;;;5018810;28;20056;-60
2022/05/29 14:13:26;;;;;;;1.65;0.70;;;;;;;;;;5022126;28;20138;-57
2022/05/29 14:16:08;;;;;;;1.77;0.80;;;;;;;;;;5019309;28;20077;-56
2022/05/29 14:19:00;;;;;;;2.40;0.77;;;;;;;;;;5019890;28;20111;-56
2022/05/29 14:22:02;;;;;;;1.25;0.77;;;;;;;;;;5018853;28;20112;-56
2022/05/29 14:25:01;;;;;;;0.55;0.52;;;;;;;;;;5020045;28;20579;-56
2022/05/29 14:28:02;;;;;;;2.40;0.50;;;;;;;;;;5023709;28;20080;-54
2022/05/29 14:30:55;;;;;;;1.38;0.77;;;;;;;;;;5000862;28;20057;-60
2022/05/29 14:33:47;;;;;;;0.70;0.60;;;;;;;;;;5021189;28;20049;-60
2022/05/29 14:36:37;;;;;;;2.80;0.70;;;;;;;;;;5010054;28;20085;-60
2022/05/29 14:39:35;;;;;;;0.77;0.77;;;;;;;;;;5016183;28;20045;-60
2022/05/29 14:42:33;;;;;;;1.55;0.82;;;;;;;;;;5017736;28;20116;-61
2022/05/29 14:45:26;;;;;;;3.03;0.70;;;;;;;;;;5021869;28;20475;-61
2022/05/29 14:48:25;;;;;;;2.53;0.80;;;;;;;;;;5023680;28;20061;-57
2022/05/29 14:51:19;;;;;;;6.43;0.88;;;;;;;;;;5023721;28;20132;-53
2022/05/29 14:54:14;;;;;;;1.05;0.60;;;;;;;;;;5022207;28;20053;-53
2022/05/29 14:56:58;;;;;;;1.50;0.70;;;;;;;;;;5022172;28;20046;-53
2022/05/29 14:59:45;;;;;;;2.05;0.88;;;;;;;;;;5023457;28;20054;-56
2022/05/29 15:02:24;;;;;;;1.52;0.73;;;;;;;;;;5021507;28;20163;-55
2022/05/29 15:05:03;;;;;;;1.55;0.60;;;;;;;;;;5021350;28;20159;-59
2022/05/29 15:10:35;;;;;;;3.83;0.75;;;;;;;;;;5022578;28;20081;-49
2022/05/29 15:13:03;;;;;;;0.98;0.40;;;;;;;;;;5022275;28;20485;-54
2022/05/29 15:15:55;;;;;;;1.42;0.70;;;;;;;;;;5022755;28;20501;-51
2022/05/29 15:18:29;;;;;;;1.75;0.43;;;;;;;;;;5023797;28;20058;-50
2022/05/29 15:26:51;;;;;;;1.35;0.50;;;;;;;;;;5021904;28;20053;-54
2022/05/29 15:29:32;;;;;;;0.65;0.45;;;;;;;;;;5024323;28;20080;-47
2022/05/29 15:32:07;;;;;;;0.65;0.43;;;;;;;;;;5019962;28;20089;-51
2022/05/29 15:34:36;;;;;;;0.43;0.43;;;;;;;;;;5022949;28;20069;-51
2022/05/29 15:37:06;;;;;;;1.52;0.50;;;;;;;;;;5022930;28;20521;-49
2022/05/29 15:39:52;;;;;;;2.03;0.60;;;;;;;;;;5020951;28;20085;-49
2022/05/29 15:42:27;;;;;;;2.30;0.52;;;;;;;;;;5027432;28;20054;-51
2022/05/29 15:45:00;;;;;;;2.22;0.60;;;;;;;;;;5023658;28;20167;-54
2022/05/29 15:47:26;;;;;;;0.70;0.50;;;;;;;;;;5021372;28;20096;-51
2022/05/29 15:50:31;;;;;;;0.47;0.43;;;;;;;;;;5024156;28;20521;-51
2022/05/29 15:53:21;;;;;;;2.00;0.70;;;;;;;;;;4961154;28;20055;-51
2022/05/29 15:55:53;;;;;;;1.55;0.70;;;;;;;;;;4962040;28;20050;-49
2022/05/29 15:58:26;;;;;;;0.63;0.60;;;;;;;;;;5004377;28;20092;-48
2022/05/29 16:01:03;;;;;;;2.58;0.57;;;;;;;;;;5022659;28;20085;-52
2022/05/29 16:03:38;;;;;;;1.48;0.80;;;;;;;;;;5023161;28;20584;-57
2022/05/29 16:06:10;;;;;;;3.40;0.77;;;;;;;;;;5020592;28;20072;-50
2022/05/29 16:08:36;;;;;;;1.33;0.82;;;;;;;;;;5019061;28;20089;-53
2022/05/29 16:11:27;;;;;;;1.27;0.73;;;;;;;;;;5023160;28;20133;-52
2022/05/29 16:13:54;;;;;;;0.82;0.60;;;;;;;;;;5008668;28;20131;-53
2022/05/29 16:16:29;;;;;;;1.75;0.63;;;;;;;;;;5025379;28;20096;-51
2022/05/29 16:18:59;;;;;;;1.88;0.80;;;;;;;;;;5021778;28;20144;-52
2022/05/29 16:21:58;;;;;;;0.93;0.55;;;;;;;;;;5021935;28;20104;-53
2022/05/29 16:24:51;;;;;;;8.90;0.57;;;;;;;;;;4989779;28;20136;-58
2022/05/29 16:27:27;;;;;;;2.05;0.93;;;;;;;;;;5005463;28;20591;-47